sensor_id;sensor_type;location;lat;lon;timestamp;temperature;humidity
7427;DHT22;3755;59.316;18.092;2024-02-21T00:00:16;0.40;99.90
7427;DHT22;3755;59.316;18.092;2024-02-21T00:02:43;0.40;99.90
7427;DHT22;3755;59.316;18.092;2024-02-21T00:05:12;0.40;99.90
7427;DHT22;3755;59.316;18.092;2024-02-21T00:07:39;0.50;99.90
7427;DHT22;3755;59.316;18.092;2024-02-21T00:10:07;0.50;99.90
7427;DHT22;3755;59.316;18.092;2024-02-21T00:12:34;0.50;99.90
7427;DHT22;3755;59.316;18.092;2024-02-21T00:15:01;0.50;99.90
7427;DHT22;3755;59.316;18.092;2024-02-21T00:17:28;0.50;99.90
7427;DHT22;3755;59.316;18.092;2024-02-21T00:19:55;0.40;99.90
7427;DHT22;3755;59.316;18.092;2024-02-21T00:22:24;0.40;99.90
7427;DHT22;3755;59.316;18.092;2024-02-21T00:24:54;0.40;99.90
7427;DHT22;3755;59.316;18.092;2024-02-21T00:27:21;0.50;99.90
7427;DHT22;3755;59.316;18.092;2024-02-21T00:29:48;0.50;99.90
7427;DHT22;3755;59.316;18.092;2024-02-21T00:32:16;0.50;99.90
7427;DHT22;3755;59.316;18.092;2024-02-21T00:34:43;0.50;99.90
7427;DHT22;3755;59.316;18.092;2024-02-21T00:37:10;0.50;99.90
7427;DHT22;3755;59.316;18.092;2024-02-21T00:39:38;0.50;99.90
7427;DHT22;3755;59.316;18.092;2024-02-21T00:42:05;0.50;99.90
7427;DHT22;3755;59.316;18.092;2024-02-21T00:44:33;0.50;99.90
7427;DHT22;3755;59.316;18.092;2024-02-21T00:47:00;0.50;99.90
7427;DHT22;3755;59.316;18.092;2024-02-21T00:49:27;0.60;99.90
7427;DHT22;3755;59.316;18.092;2024-02-21T00:51:54;0.60;99.90
7427;DHT22;3755;59.316;18.092;2024-02-21T00:54:21;0.60;99.90
7427;DHT22;3755;59.316;18.092;2024-02-21T00:56:50;0.60;99.90
7427;DHT22;3755;59.316;18.092;2024-02-21T00:59:18;0.70;99.90
7427;DHT22;3755;59.316;18.092;2024-02-21T01:01:45;0.70;99.90
7427;DHT22;3755;59.316;18.092;2024-02-21T01:04:12;0.70;99.90
7427;DHT22;3755;59.316;18.092;2024-02-21T01:06:39;0.70;99.90
7427;DHT22;3755;59.316;18.092;2024-02-21T01:09:08;0.70;99.90
7427;DHT22;3755;59.316;18.092;2024-02-21T01:11:35;0.80;99.90
7427;DHT22;3755;59.316;18.092;2024-02-21T01:14:04;0.80;99.90
7427;DHT22;3755;59.316;18.092;2024-02-21T01:16:31;0.80;99.90
7427;DHT22;3755;59.316;18.092;2024-02-21T01:18:58;0.80;99.90
7427;DHT22;3755;59.316;18.092;2024-02-21T01:21:25;0.80;99.90
7427;DHT22;3755;59.316;18.092;2024-02-21T01:23:52;0.70;99.90
7427;DHT22;3755;59.316;18.092;2024-02-21T01:26:19;0.70;99.90
7427;DHT22;3755;59.316;18.092;2024-02-21T01:28:46;0.80;99.90
7427;DHT22;3755;59.316;18.092;2024-02-21T01:31:14;0.80;99.90
7427;DHT22;3755;59.316;18.092;2024-02-21T01:33:41;0.80;99.90
7427;DHT22;3755;59.316;18.092;2024-02-21T01:36:08;0.80;99.90
7427;DHT22;3755;59.316;18.092;2024-02-21T01:38:35;0.80;99.90
7427;DHT22;3755;59.316;18.092;2024-02-21T01:41:03;0.80;99.90
7427;DHT22;3755;59.316;18.092;2024-02-21T01:43:30;0.70;99.90
7427;DHT22;3755;59.316;18.092;2024-02-21T01:45:57;0.70;99.90
7427;DHT22;3755;59.316;18.092;2024-02-21T01:48:25;0.80;99.90
7427;DHT22;3755;59.316;18.092;2024-02-21T01:50:54;0.90;99.90
7427;DHT22;3755;59.316;18.092;2024-02-21T01:53:23;0.80;99.90
7427;DHT22;3755;59.316;18.092;2024-02-21T01:55:52;0.90;99.90
7427;DHT22;3755;59.316;18.092;2024-02-21T01:58:21;0.80;99.90
7427;DHT22;3755;59.316;18.092;2024-02-21T02:00:48;0.90;99.90
7427;DHT22;3755;59.316;18.092;2024-02-21T02:03:16;0.80;99.90
7427;DHT22;3755;59.316;18.092;2024-02-21T02:05:46;0.80;99.90
7427;DHT22;3755;59.316;18.092;2024-02-21T02:08:14;0.80;99.90
7427;DHT22;3755;59.316;18.092;2024-02-21T02:10:41;0.80;99.90
7427;DHT22;3755;59.316;18.092;2024-02-21T02:13:09;0.90;99.90
7427;DHT22;3755;59.316;18.092;2024-02-21T02:15:40;0.90;99.90
7427;DHT22;3755;59.316;18.092;2024-02-21T02:18:07;0.90;99.90
7427;DHT22;3755;59.316;18.092;2024-02-21T02:20:35;0.90;99.90
7427;DHT22;3755;59.316;18.092;2024-02-21T02:23:07;0.90;99.90
7427;DHT22;3755;59.316;18.092;2024-02-21T02:25:36;1.00;99.90
7427;DHT22;3755;59.316;18.092;2024-02-21T02:28:04;1.00;99.90
7427;DHT22;3755;59.316;18.092;2024-02-21T02:30:32;1.00;99.90
7427;DHT22;3755;59.316;18.092;2024-02-21T02:33:00;0.90;99.90
7427;DHT22;3755;59.316;18.092;2024-02-21T02:35:27;1.00;99.90
7427;DHT22;3755;59.316;18.092;2024-02-21T02:37:54;1.00;99.90
7427;DHT22;3755;59.316;18.092;2024-02-21T02:40:21;1.00;99.90
7427;DHT22;3755;59.316;18.092;2024-02-21T02:42:49;1.00;99.90
7427;DHT22;3755;59.316;18.092;2024-02-21T02:45:17;1.00;99.90
7427;DHT22;3755;59.316;18.092;2024-02-21T02:47:44;1.00;99.90
7427;DHT22;3755;59.316;18.092;2024-02-21T02:50:12;1.00;99.90
7427;DHT22;3755;59.316;18.092;2024-02-21T02:52:39;1.00;99.90
7427;DHT22;3755;59.316;18.092;2024-02-21T02:55:07;1.10;99.90
7427;DHT22;3755;59.316;18.092;2024-02-21T02:57:34;1.10;99.90
7427;DHT22;3755;59.316;18.092;2024-02-21T03:00:03;1.10;99.90
7427;DHT22;3755;59.316;18.092;2024-02-21T03:02:32;1.20;99.90
7427;DHT22;3755;59.316;18.092;2024-02-21T03:04:59;1.20;99.90
7427;DHT22;3755;59.316;18.092;2024-02-21T03:07:26;1.20;99.90
7427;DHT22;3755;59.316;18.092;2024-02-21T03:09:53;1.10;99.90
7427;DHT22;3755;59.316;18.092;2024-02-21T03:12:20;1.10;99.90
7427;DHT22;3755;59.316;18.092;2024-02-21T03:14:53;1.10;99.90
7427;DHT22;3755;59.316;18.092;2024-02-21T03:17:21;1.10;99.90
7427;DHT22;3755;59.316;18.092;2024-02-21T03:19:49;1.20;99.90
7427;DHT22;3755;59.316;18.092;2024-02-21T03:22:16;1.20;99.90
7427;DHT22;3755;59.316;18.092;2024-02-21T03:24:43;1.20;99.90
7427;DHT22;3755;59.316;18.092;2024-02-21T03:27:10;1.20;99.90
7427;DHT22;3755;59.316;18.092;2024-02-21T03:29:37;1.30;99.90
7427;DHT22;3755;59.316;18.092;2024-02-21T03:32:04;1.30;99.90
7427;DHT22;3755;59.316;18.092;2024-02-21T03:34:33;1.30;99.90
7427;DHT22;3755;59.316;18.092;2024-02-21T03:36:59;1.30;99.90
7427;DHT22;3755;59.316;18.092;2024-02-21T03:39:27;1.40;99.90
7427;DHT22;3755;59.316;18.092;2024-02-21T03:41:54;1.40;99.90
7427;DHT22;3755;59.316;18.092;2024-02-21T03:44:21;1.30;99.90
7427;DHT22;3755;59.316;18.092;2024-02-21T03:46:47;1.30;99.90
7427;DHT22;3755;59.316;18.092;2024-02-21T03:49:15;1.30;99.90
7427;DHT22;3755;59.316;18.092;2024-02-21T03:51:43;1.40;99.90
7427;DHT22;3755;59.316;18.092;2024-02-21T03:54:10;1.40;99.90
7427;DHT22;3755;59.316;18.092;2024-02-21T03:56:37;1.40;99.90
7427;DHT22;3755;59.316;18.092;2024-02-21T03:59:05;1.40;99.90
7427;DHT22;3755;59.316;18.092;2024-02-21T04:01:33;1.40;99.90
7427;DHT22;3755;59.316;18.092;2024-02-21T04:04:00;1.50;99.90
7427;DHT22;3755;59.316;18.092;2024-02-21T04:06:27;1.40;99.90
7427;DHT22;3755;59.316;18.092;2024-02-21T04:08:57;1.50;99.90
7427;DHT22;3755;59.316;18.092;2024-02-21T04:11:24;1.40;99.90
7427;DHT22;3755;59.316;18.092;2024-02-21T04:13:51;1.50;99.90
7427;DHT22;3755;59.316;18.092;2024-02-21T04:16:18;1.50;99.90
7427;DHT22;3755;59.316;18.092;2024-02-21T04:18:45;1.60;99.90
7427;DHT22;3755;59.316;18.092;2024-02-21T04:21:14;1.60;99.90
7427;DHT22;3755;59.316;18.092;2024-02-21T04:23:42;1.60;99.90
7427;DHT22;3755;59.316;18.092;2024-02-21T04:26:10;1.50;99.90
7427;DHT22;3755;59.316;18.092;2024-02-21T04:28:37;1.60;99.90
7427;DHT22;3755;59.316;18.092;2024-02-21T04:31:04;1.60;99.90
7427;DHT22;3755;59.316;18.092;2024-02-21T04:33:32;1.60;99.90
7427;DHT22;3755;59.316;18.092;2024-02-21T04:35:59;1.60;99.90
7427;DHT22;3755;59.316;18.092;2024-02-21T04:38:26;1.70;99.90
7427;DHT22;3755;59.316;18.092;2024-02-21T04:40:54;1.60;99.90
7427;DHT22;3755;59.316;18.092;2024-02-21T04:43:25;1.60;99.90
7427;DHT22;3755;59.316;18.092;2024-02-21T04:45:52;1.70;99.90
7427;DHT22;3755;59.316;18.092;2024-02-21T04:48:19;1.70;99.90
7427;DHT22;3755;59.316;18.092;2024-02-21T04:50:47;1.70;99.90
7427;DHT22;3755;59.316;18.092;2024-02-21T04:53:14;1.70;99.90
7427;DHT22;3755;59.316;18.092;2024-02-21T04:55:41;1.80;99.90
7427;DHT22;3755;59.316;18.092;2024-02-21T04:58:08;1.80;99.90
7427;DHT22;3755;59.316;18.092;2024-02-21T05:00:37;1.70;99.90
7427;DHT22;3755;59.316;18.092;2024-02-21T05:03:04;1.80;99.90
7427;DHT22;3755;59.316;18.092;2024-02-21T05:05:31;1.80;99.90
7427;DHT22;3755;59.316;18.092;2024-02-21T05:07:58;1.80;99.90
7427;DHT22;3755;59.316;18.092;2024-02-21T05:10:25;1.90;99.90
7427;DHT22;3755;59.316;18.092;2024-02-21T05:12:52;1.90;99.90
7427;DHT22;3755;59.316;18.092;2024-02-21T05:15:19;1.90;99.90
7427;DHT22;3755;59.316;18.092;2024-02-21T05:17:48;1.90;99.90
7427;DHT22;3755;59.316;18.092;2024-02-21T05:20:15;1.90;99.90
7427;DHT22;3755;59.316;18.092;2024-02-21T05:22:42;1.90;99.90
7427;DHT22;3755;59.316;18.092;2024-02-21T05:25:09;1.90;99.90
7427;DHT22;3755;59.316;18.092;2024-02-21T05:27:36;2.00;99.90
7427;DHT22;3755;59.316;18.092;2024-02-21T05:30:05;2.00;99.90
7427;DHT22;3755;59.316;18.092;2024-02-21T05:32:33;2.00;99.90
7427;DHT22;3755;59.316;18.092;2024-02-21T05:35:01;2.00;99.90
7427;DHT22;3755;59.316;18.092;2024-02-21T05:37:28;2.00;99.90
7427;DHT22;3755;59.316;18.092;2024-02-21T05:39:55;2.00;99.90
7427;DHT22;3755;59.316;18.092;2024-02-21T05:42:22;2.00;99.90
7427;DHT22;3755;59.316;18.092;2024-02-21T05:44:49;2.00;99.90
7427;DHT22;3755;59.316;18.092;2024-02-21T05:47:16;2.10;99.90
7427;DHT22;3755;59.316;18.092;2024-02-21T05:49:46;2.10;99.90
7427;DHT22;3755;59.316;18.092;2024-02-21T05:52:14;2.20;99.90
7427;DHT22;3755;59.316;18.092;2024-02-21T05:54:42;2.20;99.90
7427;DHT22;3755;59.316;18.092;2024-02-21T05:57:09;2.10;99.90
7427;DHT22;3755;59.316;18.092;2024-02-21T05:59:38;2.20;99.90
7427;DHT22;3755;59.316;18.092;2024-02-21T06:02:07;2.20;99.90
7427;DHT22;3755;59.316;18.092;2024-02-21T06:04:34;2.20;99.90
7427;DHT22;3755;59.316;18.092;2024-02-21T06:07:01;2.20;99.90
7427;DHT22;3755;59.316;18.092;2024-02-21T06:09:30;2.20;99.90
7427;DHT22;3755;59.316;18.092;2024-02-21T06:11:57;2.20;99.90
7427;DHT22;3755;59.316;18.092;2024-02-21T06:14:24;2.30;99.90
7427;DHT22;3755;59.316;18.092;2024-02-21T06:16:51;2.30;99.90
7427;DHT22;3755;59.316;18.092;2024-02-21T06:19:18;2.30;99.90
7427;DHT22;3755;59.316;18.092;2024-02-21T06:21:45;2.30;99.90
7427;DHT22;3755;59.316;18.092;2024-02-21T06:24:13;2.30;99.90
7427;DHT22;3755;59.316;18.092;2024-02-21T06:26:41;2.30;99.90
7427;DHT22;3755;59.316;18.092;2024-02-21T06:29:09;2.40;99.90
7427;DHT22;3755;59.316;18.092;2024-02-21T06:31:36;2.40;99.90
7427;DHT22;3755;59.316;18.092;2024-02-21T06:34:04;2.50;99.90
7427;DHT22;3755;59.316;18.092;2024-02-21T06:36:31;2.50;99.90
7427;DHT22;3755;59.316;18.092;2024-02-21T06:38:58;2.50;99.90
7427;DHT22;3755;59.316;18.092;2024-02-21T06:41:25;2.50;99.90
7427;DHT22;3755;59.316;18.092;2024-02-21T06:43:54;2.60;99.90
7427;DHT22;3755;59.316;18.092;2024-02-21T06:46:25;2.60;99.90
7427;DHT22;3755;59.316;18.092;2024-02-21T06:48:53;2.60;99.90
7427;DHT22;3755;59.316;18.092;2024-02-21T06:51:22;2.60;99.90
7427;DHT22;3755;59.316;18.092;2024-02-21T06:53:49;2.60;99.90
7427;DHT22;3755;59.316;18.092;2024-02-21T06:56:16;2.70;99.90
7427;DHT22;3755;59.316;18.092;2024-02-21T06:58:43;2.70;99.90
7427;DHT22;3755;59.316;18.092;2024-02-21T07:01:12;2.80;99.90
7427;DHT22;3755;59.316;18.092;2024-02-21T07:03:39;2.80;99.90
7427;DHT22;3755;59.316;18.092;2024-02-21T07:06:06;2.80;99.90
7427;DHT22;3755;59.316;18.092;2024-02-21T07:08:33;2.80;99.90
7427;DHT22;3755;59.316;18.092;2024-02-21T07:11:01;2.80;99.90
7427;DHT22;3755;59.316;18.092;2024-02-21T07:13:28;2.80;99.90
7427;DHT22;3755;59.316;18.092;2024-02-21T07:15:56;2.80;99.90
7427;DHT22;3755;59.316;18.092;2024-02-21T07:18:24;2.80;99.90
7427;DHT22;3755;59.316;18.092;2024-02-21T07:20:52;2.90;99.90
7427;DHT22;3755;59.316;18.092;2024-02-21T07:23:19;2.70;99.90
7427;DHT22;3755;59.316;18.092;2024-02-21T07:25:47;2.90;99.90
7427;DHT22;3755;59.316;18.092;2024-02-21T07:28:14;3.00;99.90
7427;DHT22;3755;59.316;18.092;2024-02-21T07:30:42;3.00;99.90
7427;DHT22;3755;59.316;18.092;2024-02-21T07:33:09;3.00;99.90
7427;DHT22;3755;59.316;18.092;2024-02-21T07:35:38;3.00;99.90
7427;DHT22;3755;59.316;18.092;2024-02-21T07:38:07;3.00;99.90
7427;DHT22;3755;59.316;18.092;2024-02-21T07:40:38;3.00;99.90
7427;DHT22;3755;59.316;18.092;2024-02-21T07:43:05;3.00;99.90
7427;DHT22;3755;59.316;18.092;2024-02-21T07:45:33;3.00;99.90
7427;DHT22;3755;59.316;18.092;2024-02-21T07:48:00;3.10;99.90
7427;DHT22;3755;59.316;18.092;2024-02-21T07:50:27;3.10;99.90
7427;DHT22;3755;59.316;18.092;2024-02-21T07:52:56;3.10;99.90
7427;DHT22;3755;59.316;18.092;2024-02-21T07:55:23;3.10;99.90
7427;DHT22;3755;59.316;18.092;2024-02-21T07:57:50;3.20;99.90
7427;DHT22;3755;59.316;18.092;2024-02-21T08:00:19;3.20;99.90
7427;DHT22;3755;59.316;18.092;2024-02-21T08:02:48;3.30;99.90
7427;DHT22;3755;59.316;18.092;2024-02-21T08:05:16;3.20;99.90
7427;DHT22;3755;59.316;18.092;2024-02-21T08:07:43;3.20;99.90
7427;DHT22;3755;59.316;18.092;2024-02-21T08:10:11;3.20;99.90
7427;DHT22;3755;59.316;18.092;2024-02-21T08:12:39;3.20;99.90
7427;DHT22;3755;59.316;18.092;2024-02-21T08:15:07;3.30;99.90
7427;DHT22;3755;59.316;18.092;2024-02-21T08:17:36;3.30;99.90
7427;DHT22;3755;59.316;18.092;2024-02-21T08:20:04;3.30;99.90
7427;DHT22;3755;59.316;18.092;2024-02-21T08:22:31;3.40;99.90
7427;DHT22;3755;59.316;18.092;2024-02-21T08:24:58;3.50;99.90
7427;DHT22;3755;59.316;18.092;2024-02-21T08:27:28;3.50;99.90
7427;DHT22;3755;59.316;18.092;2024-02-21T08:29:55;3.50;99.90
7427;DHT22;3755;59.316;18.092;2024-02-21T08:32:23;3.50;99.90
7427;DHT22;3755;59.316;18.092;2024-02-21T08:34:50;3.50;99.90
7427;DHT22;3755;59.316;18.092;2024-02-21T08:37:17;3.60;99.90
7427;DHT22;3755;59.316;18.092;2024-02-21T08:39:44;3.60;99.90
7427;DHT22;3755;59.316;18.092;2024-02-21T08:42:11;3.70;99.90
7427;DHT22;3755;59.316;18.092;2024-02-21T08:44:41;3.70;99.90
7427;DHT22;3755;59.316;18.092;2024-02-21T08:47:09;3.60;99.90
7427;DHT22;3755;59.316;18.092;2024-02-21T08:49:36;3.70;99.90
7427;DHT22;3755;59.316;18.092;2024-02-21T08:52:04;3.70;99.90
7427;DHT22;3755;59.316;18.092;2024-02-21T08:54:32;3.70;99.90
7427;DHT22;3755;59.316;18.092;2024-02-21T08:56:59;3.70;99.90
7427;DHT22;3755;59.316;18.092;2024-02-21T08:59:27;3.70;99.90
7427;DHT22;3755;59.316;18.092;2024-02-21T09:01:55;3.80;99.90
7427;DHT22;3755;59.316;18.092;2024-02-21T09:04:23;3.80;99.90
7427;DHT22;3755;59.316;18.092;2024-02-21T09:06:50;3.80;99.90
7427;DHT22;3755;59.316;18.092;2024-02-21T09:09:18;3.80;99.90
7427;DHT22;3755;59.316;18.092;2024-02-21T09:11:45;3.80;99.90
7427;DHT22;3755;59.316;18.092;2024-02-21T09:14:12;3.90;99.90
7427;DHT22;3755;59.316;18.092;2024-02-21T09:16:40;3.90;99.90
7427;DHT22;3755;59.316;18.092;2024-02-21T09:19:08;4.00;99.90
7427;DHT22;3755;59.316;18.092;2024-02-21T09:21:36;4.00;99.90
7427;DHT22;3755;59.316;18.092;2024-02-21T09:24:05;4.00;99.90
7427;DHT22;3755;59.316;18.092;2024-02-21T09:26:32;4.10;99.90
7427;DHT22;3755;59.316;18.092;2024-02-21T09:29:00;4.20;99.90
7427;DHT22;3755;59.316;18.092;2024-02-21T09:31:27;4.10;99.90
7427;DHT22;3755;59.316;18.092;2024-02-21T09:33:54;4.10;99.90
7427;DHT22;3755;59.316;18.092;2024-02-21T09:36:24;4.10;99.90
7427;DHT22;3755;59.316;18.092;2024-02-21T09:38:51;4.20;99.90
7427;DHT22;3755;59.316;18.092;2024-02-21T09:41:25;4.20;99.90
7427;DHT22;3755;59.316;18.092;2024-02-21T09:43:52;4.20;99.90
7427;DHT22;3755;59.316;18.092;2024-02-21T09:46:24;4.20;99.90
7427;DHT22;3755;59.316;18.092;2024-02-21T09:49:08;4.30;99.90
7427;DHT22;3755;59.316;18.092;2024-02-21T09:51:40;4.30;99.90
7427;DHT22;3755;59.316;18.092;2024-02-21T09:54:08;4.20;99.90
7427;DHT22;3755;59.316;18.092;2024-02-21T09:56:36;4.40;99.90
7427;DHT22;3755;59.316;18.092;2024-02-21T09:59:04;4.40;99.90
7427;DHT22;3755;59.316;18.092;2024-02-21T10:01:31;4.50;99.90
7427;DHT22;3755;59.316;18.092;2024-02-21T10:03:58;4.40;99.90
7427;DHT22;3755;59.316;18.092;2024-02-21T10:06:26;4.40;99.90
7427;DHT22;3755;59.316;18.092;2024-02-21T10:08:54;4.40;99.90
7427;DHT22;3755;59.316;18.092;2024-02-21T10:11:24;4.40;99.90
7427;DHT22;3755;59.316;18.092;2024-02-21T10:14:02;4.40;99.90
7427;DHT22;3755;59.316;18.092;2024-02-21T10:16:30;4.30;99.90
7427;DHT22;3755;59.316;18.092;2024-02-21T10:18:57;4.30;99.90
7427;DHT22;3755;59.316;18.092;2024-02-21T10:21:24;4.30;99.90
7427;DHT22;3755;59.316;18.092;2024-02-21T10:23:53;4.30;99.90
7427;DHT22;3755;59.316;18.092;2024-02-21T10:26:21;4.30;99.90
7427;DHT22;3755;59.316;18.092;2024-02-21T10:28:48;4.30;99.90
7427;DHT22;3755;59.316;18.092;2024-02-21T10:31:24;4.40;99.90
7427;DHT22;3755;59.316;18.092;2024-02-21T10:33:55;4.50;99.90
7427;DHT22;3755;59.316;18.092;2024-02-21T10:36:23;4.40;99.90
7427;DHT22;3755;59.316;18.092;2024-02-21T10:38:50;4.40;99.90
7427;DHT22;3755;59.316;18.092;2024-02-21T10:41:20;4.40;99.90
7427;DHT22;3755;59.316;18.092;2024-02-21T10:43:50;4.40;99.90
7427;DHT22;3755;59.316;18.092;2024-02-21T10:46:20;4.50;99.90
7427;DHT22;3755;59.316;18.092;2024-02-21T10:48:54;4.30;99.90
7427;DHT22;3755;59.316;18.092;2024-02-21T10:51:27;4.30;99.90
7427;DHT22;3755;59.316;18.092;2024-02-21T10:54:02;4.30;99.90
7427;DHT22;3755;59.316;18.092;2024-02-21T10:56:32;4.30;99.90
7427;DHT22;3755;59.316;18.092;2024-02-21T10:59:03;4.40;99.90
7427;DHT22;3755;59.316;18.092;2024-02-21T11:01:31;4.40;99.90
7427;DHT22;3755;59.316;18.092;2024-02-21T11:04:02;4.40;99.90
7427;DHT22;3755;59.316;18.092;2024-02-21T11:06:29;4.40;99.90
7427;DHT22;3755;59.316;18.092;2024-02-21T11:09:02;4.30;99.90
7427;DHT22;3755;59.316;18.092;2024-02-21T11:11:31;4.30;99.90
7427;DHT22;3755;59.316;18.092;2024-02-21T11:14:07;4.30;99.90
7427;DHT22;3755;59.316;18.092;2024-02-21T11:16:38;4.30;99.90
7427;DHT22;3755;59.316;18.092;2024-02-21T11:19:06;4.30;99.90
7427;DHT22;3755;59.316;18.092;2024-02-21T11:21:34;4.30;99.90
7427;DHT22;3755;59.316;18.092;2024-02-21T11:24:02;4.30;99.90
7427;DHT22;3755;59.316;18.092;2024-02-21T11:26:32;4.30;99.90
7427;DHT22;3755;59.316;18.092;2024-02-21T11:29:01;4.40;99.90
7427;DHT22;3755;59.316;18.092;2024-02-21T11:31:38;4.40;99.90
7427;DHT22;3755;59.316;18.092;2024-02-21T11:34:09;4.40;99.90
7427;DHT22;3755;59.316;18.092;2024-02-21T11:36:36;4.40;99.90
7427;DHT22;3755;59.316;18.092;2024-02-21T11:39:04;4.40;99.90
7427;DHT22;3755;59.316;18.092;2024-02-21T11:41:33;4.40;99.90
7427;DHT22;3755;59.316;18.092;2024-02-21T11:44:00;4.40;99.90
7427;DHT22;3755;59.316;18.092;2024-02-21T11:46:27;4.50;99.90
7427;DHT22;3755;59.316;18.092;2024-02-21T11:48:55;4.50;99.90
7427;DHT22;3755;59.316;18.092;2024-02-21T11:51:26;4.60;99.90
7427;DHT22;3755;59.316;18.092;2024-02-21T11:53:53;4.60;99.90
7427;DHT22;3755;59.316;18.092;2024-02-21T11:56:21;4.60;99.90
7427;DHT22;3755;59.316;18.092;2024-02-21T11:58:50;4.70;99.90
7427;DHT22;3755;59.316;18.092;2024-02-21T12:01:17;4.70;99.90
7427;DHT22;3755;59.316;18.092;2024-02-21T12:03:45;4.70;99.90
7427;DHT22;3755;59.316;18.092;2024-02-21T12:06:16;4.70;99.90
7427;DHT22;3755;59.316;18.092;2024-02-21T12:08:47;4.50;99.90
7427;DHT22;3755;59.316;18.092;2024-02-21T12:11:19;4.50;99.90
7427;DHT22;3755;59.316;18.092;2024-02-21T12:13:46;4.60;99.90
7427;DHT22;3755;59.316;18.092;2024-02-21T12:16:17;4.60;99.90
7427;DHT22;3755;59.316;18.092;2024-02-21T12:18:45;4.60;99.90
7427;DHT22;3755;59.316;18.092;2024-02-21T12:21:12;4.70;99.90
7427;DHT22;3755;59.316;18.092;2024-02-21T12:23:39;4.70;99.90
7427;DHT22;3755;59.316;18.092;2024-02-21T12:26:06;4.80;99.90
7427;DHT22;3755;59.316;18.092;2024-02-21T12:28:34;4.80;99.90
7427;DHT22;3755;59.316;18.092;2024-02-21T12:31:01;4.80;99.90
7427;DHT22;3755;59.316;18.092;2024-02-21T12:33:31;4.80;99.90
7427;DHT22;3755;59.316;18.092;2024-02-21T12:35:59;4.70;99.90
7427;DHT22;3755;59.316;18.092;2024-02-21T12:38:27;4.70;99.90
7427;DHT22;3755;59.316;18.092;2024-02-21T12:40:54;4.70;99.90
7427;DHT22;3755;59.316;18.092;2024-02-21T12:43:23;4.80;99.90
7427;DHT22;3755;59.316;18.092;2024-02-21T12:45:50;4.90;99.90
7427;DHT22;3755;59.316;18.092;2024-02-21T12:48:18;5.00;99.90
7427;DHT22;3755;59.316;18.092;2024-02-21T12:50:48;4.90;99.90
7427;DHT22;3755;59.316;18.092;2024-02-21T12:53:17;5.00;99.90
7427;DHT22;3755;59.316;18.092;2024-02-21T12:55:45;5.00;99.90
7427;DHT22;3755;59.316;18.092;2024-02-21T12:58:12;4.90;99.90
7427;DHT22;3755;59.316;18.092;2024-02-21T13:00:40;5.00;99.90
7427;DHT22;3755;59.316;18.092;2024-02-21T13:03:08;5.00;99.90
7427;DHT22;3755;59.316;18.092;2024-02-21T13:05:36;5.10;99.90
7427;DHT22;3755;59.316;18.092;2024-02-21T13:08:06;5.10;99.90
7427;DHT22;3755;59.316;18.092;2024-02-21T13:10:33;5.00;99.90
7427;DHT22;3755;59.316;18.092;2024-02-21T13:13:01;4.90;99.90
7427;DHT22;3755;59.316;18.092;2024-02-21T13:15:28;5.00;99.90
7427;DHT22;3755;59.316;18.092;2024-02-21T13:17:57;5.00;99.90
7427;DHT22;3755;59.316;18.092;2024-02-21T13:20:25;5.00;99.90
7427;DHT22;3755;59.316;18.092;2024-02-21T13:22:54;5.00;99.90
7427;DHT22;3755;59.316;18.092;2024-02-21T13:25:23;5.00;99.90
7427;DHT22;3755;59.316;18.092;2024-02-21T13:27:50;5.00;99.90
7427;DHT22;3755;59.316;18.092;2024-02-21T13:30:17;5.00;99.90
7427;DHT22;3755;59.316;18.092;2024-02-21T13:32:44;5.00;99.90
7427;DHT22;3755;59.316;18.092;2024-02-21T13:35:13;5.10;99.90
7427;DHT22;3755;59.316;18.092;2024-02-21T13:37:41;5.10;99.90
7427;DHT22;3755;59.316;18.092;2024-02-21T13:40:09;5.10;99.90
7427;DHT22;3755;59.316;18.092;2024-02-21T13:42:38;5.10;99.90
7427;DHT22;3755;59.316;18.092;2024-02-21T13:45:06;5.10;99.90
7427;DHT22;3755;59.316;18.092;2024-02-21T13:47:34;5.10;99.90
7427;DHT22;3755;59.316;18.092;2024-02-21T13:50:02;5.20;99.90
7427;DHT22;3755;59.316;18.092;2024-02-21T13:52:30;5.20;99.90
7427;DHT22;3755;59.316;18.092;2024-02-21T13:54:58;5.20;99.90
7427;DHT22;3755;59.316;18.092;2024-02-21T13:57:26;5.20;99.90
7427;DHT22;3755;59.316;18.092;2024-02-21T13:59:54;5.20;99.90
7427;DHT22;3755;59.316;18.092;2024-02-21T14:02:22;5.20;99.90
7427;DHT22;3755;59.316;18.092;2024-02-21T14:04:49;5.20;99.90
7427;DHT22;3755;59.316;18.092;2024-02-21T14:07:16;5.20;99.90
7427;DHT22;3755;59.316;18.092;2024-02-21T14:09:43;5.10;99.90
7427;DHT22;3755;59.316;18.092;2024-02-21T14:12:11;5.10;99.90
7427;DHT22;3755;59.316;18.092;2024-02-21T14:14:38;5.00;99.90
7427;DHT22;3755;59.316;18.092;2024-02-21T14:17:08;4.90;99.90
7427;DHT22;3755;59.316;18.092;2024-02-21T14:19:35;4.90;99.90
7427;DHT22;3755;59.316;18.092;2024-02-21T14:22:02;5.00;99.90
7427;DHT22;3755;59.316;18.092;2024-02-21T14:24:30;4.90;99.90
7427;DHT22;3755;59.316;18.092;2024-02-21T14:26:57;4.90;99.90
7427;DHT22;3755;59.316;18.092;2024-02-21T14:29:29;4.90;99.90
7427;DHT22;3755;59.316;18.092;2024-02-21T14:31:56;4.90;99.90
7427;DHT22;3755;59.316;18.092;2024-02-21T14:34:25;4.90;99.90
7427;DHT22;3755;59.316;18.092;2024-02-21T14:36:52;4.90;99.90
7427;DHT22;3755;59.316;18.092;2024-02-21T14:39:19;4.80;99.90
7427;DHT22;3755;59.316;18.092;2024-02-21T14:41:47;4.80;99.90
7427;DHT22;3755;59.316;18.092;2024-02-21T14:44:14;4.80;99.90
7427;DHT22;3755;59.316;18.092;2024-02-21T14:46:42;4.80;99.90
7427;DHT22;3755;59.316;18.092;2024-02-21T14:49:10;4.80;99.90
7427;DHT22;3755;59.316;18.092;2024-02-21T14:51:43;4.80;99.90
7427;DHT22;3755;59.316;18.092;2024-02-21T14:54:13;4.80;99.90
7427;DHT22;3755;59.316;18.092;2024-02-21T14:56:40;4.80;99.90
7427;DHT22;3755;59.316;18.092;2024-02-21T14:59:07;4.80;99.90
7427;DHT22;3755;59.316;18.092;2024-02-21T15:01:36;4.80;99.90
7427;DHT22;3755;59.316;18.092;2024-02-21T15:04:05;4.80;99.90
7427;DHT22;3755;59.316;18.092;2024-02-21T15:06:32;4.80;99.90
7427;DHT22;3755;59.316;18.092;2024-02-21T15:09:03;4.80;99.90
7427;DHT22;3755;59.316;18.092;2024-02-21T15:11:34;4.70;99.90
7427;DHT22;3755;59.316;18.092;2024-02-21T15:14:04;5.00;99.90
7427;DHT22;3755;59.316;18.092;2024-02-21T15:16:31;4.80;99.90
7427;DHT22;3755;59.316;18.092;2024-02-21T15:18:59;4.90;99.90
7427;DHT22;3755;59.316;18.092;2024-02-21T15:21:26;4.80;99.90
7427;DHT22;3755;59.316;18.092;2024-02-21T15:23:53;4.90;99.90
7427;DHT22;3755;59.316;18.092;2024-02-21T15:26:22;4.90;99.90
7427;DHT22;3755;59.316;18.092;2024-02-21T15:28:50;4.90;99.90
7427;DHT22;3755;59.316;18.092;2024-02-21T15:31:20;4.90;99.90
7427;DHT22;3755;59.316;18.092;2024-02-21T15:33:49;5.00;99.90
7427;DHT22;3755;59.316;18.092;2024-02-21T15:36:16;5.00;99.90
7427;DHT22;3755;59.316;18.092;2024-02-21T15:38:44;4.90;99.90
7427;DHT22;3755;59.316;18.092;2024-02-21T15:41:12;5.00;99.90
7427;DHT22;3755;59.316;18.092;2024-02-21T15:43:42;4.90;99.90
7427;DHT22;3755;59.316;18.092;2024-02-21T15:46:11;4.90;99.90
7427;DHT22;3755;59.316;18.092;2024-02-21T15:48:38;4.90;99.90
7427;DHT22;3755;59.316;18.092;2024-02-21T15:51:06;4.90;99.90
7427;DHT22;3755;59.316;18.092;2024-02-21T15:53:33;4.90;99.90
7427;DHT22;3755;59.316;18.092;2024-02-21T15:56:01;4.90;99.90
7427;DHT22;3755;59.316;18.092;2024-02-21T15:58:29;4.80;99.90
7427;DHT22;3755;59.316;18.092;2024-02-21T16:01:00;4.90;99.90
7427;DHT22;3755;59.316;18.092;2024-02-21T16:03:28;4.90;99.90
7427;DHT22;3755;59.316;18.092;2024-02-21T16:05:56;4.90;99.90